Time;durP1;ratioP1;P1;durP2;ratioP2;P2;SDS_P1;SDS_P2;PMS_P1;PMS_P2;Temp;Humidity;BMP_temperature;BMP_pressure;BME280_temperature;BME280_humidity;BME280_pressure;Samples;Min_cycle;Max_cycle;Signal;HPM_P1;HPM_P2
2021/10/23 00:02:03;;;;;;;13.70;2.50;;;6.70;88.20;;;;;;5038800;28;20183;-90
2021/10/23 00:04:29;;;;;;;13.00;3.07;;;6.70;87.90;;;;;;5038905;28;20253;-90
2021/10/23 00:06:54;;;;;;;22.13;3.40;;;6.60;88.10;;;;;;5039172;28;20204;-91
2021/10/23 00:09:20;;;;;;;13.43;2.83;;;6.70;88.20;;;;;;5039093;28;20179;-90
2021/10/23 00:11:46;;;;;;;16.00;2.83;;;6.70;88.40;;;;;;5038593;28;20175;-90
2021/10/23 00:14:11;;;;;;;22.97;3.43;;;6.70;88.60;;;;;;5038790;28;20197;-90
2021/10/23 00:16:37;;;;;;;17.27;3.50;;;6.70;88.70;;;;;;5056335;28;20198;-91
2021/10/23 00:19:03;;;;;;;10.90;2.43;;;6.70;88.70;;;;;;5056276;28;20174;-91
2021/10/23 00:21:28;;;;;;;12.23;2.90;;;6.70;88.50;;;;;;5038600;28;20528;-90
2021/10/23 00:23:54;;;;;;;19.55;3.30;;;6.80;88.30;;;;;;5056531;28;20221;-90
2021/10/23 00:26:20;;;;;;;11.83;2.23;;;6.70;88.40;;;;;;5038343;28;20522;-90
2021/10/23 00:28:45;;;;;;;14.77;2.90;;;6.80;88.70;;;;;;5038282;28;20225;-91
2021/10/23 00:31:11;;;;;;;10.53;2.10;;;6.80;88.80;;;;;;5056078;28;20544;-90
2021/10/23 00:33:38;;;;;;;13.80;2.47;;;6.80;88.60;;;;;;5038154;28;20251;-90
2021/10/23 00:36:04;;;;;;;17.33;2.63;;;6.90;88.40;;;;;;5038595;28;20670;-90
2021/10/23 00:38:29;;;;;;;14.80;3.77;;;6.90;88.40;;;;;;5055870;28;20207;-90
2021/10/23 00:40:55;;;;;;;18.23;2.70;;;7.00;88.50;;;;;;5037167;28;20257;-90
2021/10/23 00:43:21;;;;;;;16.00;2.77;;;7.00;88.50;;;;;;5037883;28;20179;-90
2021/10/23 00:45:47;;;;;;;15.00;2.90;;;7.00;88.20;;;;;;5037946;28;20211;-90
2021/10/23 00:48:13;;;;;;;12.90;2.73;;;7.00;88.20;;;;;;5037975;28;20663;-90
2021/10/23 00:50:39;;;;;;;14.67;2.60;;;6.90;88.10;;;;;;5037902;28;20653;-90
2021/10/23 00:53:04;;;;;;;12.30;2.27;;;6.90;88.30;;;;;;5038872;28;20229;-90
2021/10/23 00:55:30;;;;;;;11.30;2.30;;;6.80;88.40;;;;;;5037833;28;20682;-90
2021/10/23 00:57:56;;;;;;;21.13;2.70;;;6.80;88.70;;;;;;5038731;28;20214;-90
2021/10/23 01:00:21;;;;;;;16.47;2.90;;;6.70;89.00;;;;;;5037790;28;20225;-91
2021/10/23 01:02:47;;;;;;;11.20;2.50;;;6.70;89.20;;;;;;5037545;28;20271;-90
2021/10/23 01:05:13;;;;;;;16.40;2.70;;;6.80;89.30;;;;;;5037744;28;20216;-90
2021/10/23 01:07:39;;;;;;;14.73;2.83;;;6.80;89.20;;;;;;5037574;28;20187;-91
2021/10/23 01:10:08;;;;;;;17.53;2.80;;;6.80;89.00;;;;;;5037987;28;20180;-90
2021/10/23 01:12:35;;;;;;;16.30;3.53;;;6.80;88.90;;;;;;5037636;28;20187;-90
2021/10/23 01:15:17;;;;;;;20.00;2.97;;;6.90;88.80;;;;;;5037459;28;20255;-91
2021/10/23 01:17:42;;;;;;;13.27;2.87;;;6.90;88.70;;;;;;5055176;28;20627;-91
2021/10/23 01:20:09;;;;;;;14.03;2.97;;;6.90;88.80;;;;;;5037284;28;20176;-91
2021/10/23 01:22:34;;;;;;;20.37;2.93;;;6.90;88.90;;;;;;5037085;28;20191;-91
2021/10/23 01:25:00;;;;;;;16.27;2.80;;;6.80;89.10;;;;;;5037388;28;20200;-91
2021/10/23 01:27:25;;;;;;;19.53;3.30;;;6.80;89.30;;;;;;5037074;28;20541;-91
2021/10/23 01:29:51;;;;;;;18.80;3.33;;;6.80;89.40;;;;;;5037036;28;20179;-91
2021/10/23 01:32:17;;;;;;;18.67;2.83;;;6.80;89.50;;;;;;5037409;28;20588;-91
2021/10/23 01:34:43;;;;;;;12.20;2.83;;;6.80;89.40;;;;;;5054946;28;20196;-90
2021/10/23 01:37:09;;;;;;;16.10;2.47;;;6.80;89.30;;;;;;5037295;28;20231;-90
2021/10/23 01:39:35;;;;;;;11.80;2.20;;;7.00;89.20;;;;;;5036917;28;20183;-90
2021/10/23 01:42:02;;;;;;;12.87;2.30;;;6.90;89.20;;;;;;5037763;28;20179;-90
2021/10/23 01:44:34;;;;;;;13.93;2.70;;;6.90;89.10;;;;;;5036980;28;20192;-90
2021/10/23 01:47:00;;;;;;;12.87;2.50;;;6.90;88.70;;;;;;5037133;28;20241;-90
2021/10/23 01:49:26;;;;;;;14.93;2.77;;;6.90;88.60;;;;;;5037042;28;20182;-90
2021/10/23 01:51:51;;;;;;;9.47;2.30;;;6.90;88.40;;;;;;5054605;28;20178;-90
2021/10/23 01:54:18;;;;;;;20.87;3.03;;;6.90;88.20;;;;;;5037072;28;20187;-90
2021/10/23 01:56:44;;;;;;;15.57;2.80;;;6.90;88.10;;;;;;5054257;28;20214;-91
2021/10/23 01:59:10;;;;;;;10.60;2.50;;;6.90;88.20;;;;;;5036722;28;20269;-90
2021/10/23 02:01:35;;;;;;;10.47;2.50;;;7.00;88.00;;;;;;5036530;28;20679;-91
2021/10/23 02:04:01;;;;;;;13.07;2.77;;;7.10;87.50;;;;;;5036426;28;20277;-90
2021/10/23 02:06:27;;;;;;;13.77;2.10;;;7.30;86.50;;;;;;5036422;28;20195;-90
2021/10/23 02:08:53;;;;;;;16.33;2.70;;;7.40;86.30;;;;;;5036646;28;20637;-90
2021/10/23 02:11:20;;;;;;;17.60;2.70;;;7.60;85.40;;;;;;5036307;28;20172;-90
2021/10/23 02:13:46;;;;;;;14.87;2.10;;;7.70;85.10;;;;;;5036908;28;20271;-90
2021/10/23 02:16:12;;;;;;;13.63;2.67;;;7.70;84.90;;;;;;5036438;28;20233;-91
2021/10/23 02:18:38;;;;;;;13.27;2.57;;;7.80;85.20;;;;;;5036260;28;20681;-90
2021/10/23 02:21:06;;;;;;;16.50;3.03;;;7.80;85.00;;;;;;5036193;28;20218;-91
2021/10/23 02:23:32;;;;;;;13.97;2.87;;;8.00;84.30;;;;;;5053970;28;20589;-90
2021/10/23 02:25:58;;;;;;;11.57;2.43;;;8.00;84.80;;;;;;5036773;28;20259;-91
2021/10/23 02:28:24;;;;;;;21.73;2.80;;;7.90;85.20;;;;;;5054239;28;20202;-90
2021/10/23 02:30:49;;;;;;;10.77;2.23;;;7.80;85.40;;;;;;5035936;28;20210;-91
2021/10/23 02:33:15;;;;;;;14.30;2.67;;;7.80;85.40;;;;;;5036058;28;20179;-91
2021/10/23 02:35:41;;;;;;;15.83;3.20;;;7.80;86.00;;;;;;5035927;28;20291;-91
2021/10/23 02:38:07;;;;;;;11.23;2.57;;;7.90;86.00;;;;;;5035863;28;20275;-91
2021/10/23 02:40:33;;;;;;;14.73;2.77;;;7.90;85.60;;;;;;5035898;28;20180;-91
2021/10/23 02:42:58;;;;;;;17.80;3.33;;;7.90;85.50;;;;;;5054104;28;20199;-91
2021/10/23 02:45:24;;;;;;;20.00;3.60;;;7.90;85.60;;;;;;5036433;28;20298;-91
2021/10/23 02:47:50;;;;;;;13.30;2.63;;;7.70;86.00;;;;;;5053551;28;20168;-91
2021/10/23 02:50:15;;;;;;;9.50;2.50;;;7.50;86.20;;;;;;5035797;28;20171;-90
2021/10/23 02:52:41;;;;;;;14.67;3.07;;;7.40;86.20;;;;;;5053491;28;20172;-90
2021/10/23 02:55:07;;;;;;;15.13;2.83;;;7.30;86.70;;;;;;5053580;28;20192;-90
2021/10/23 02:57:33;;;;;;;17.70;2.13;;;7.30;86.90;;;;;;5036008;28;20298;-90
2021/10/23 02:59:58;;;;;;;17.90;2.63;;;7.30;86.70;;;;;;5035550;28;20215;-91
2021/10/23 03:02:24;;;;;;;14.77;2.67;;;7.30;86.90;;;;;;5035624;28;20187;-90
2021/10/23 03:04:50;;;;;;;10.67;2.07;;;7.20;87.50;;;;;;5052937;28;20202;-90
2021/10/23 03:07:15;;;;;;;16.03;2.43;;;7.10;87.90;;;;;;5053297;28;20199;-91
2021/10/23 03:09:41;;;;;;;15.30;4.40;;;7.10;88.20;;;;;;5035412;28;20572;-91
2021/10/23 03:12:07;;;;;;;12.40;3.37;;;7.00;88.40;;;;;;5053283;28;20725;-91
2021/10/23 03:14:32;;;;;;;15.77;2.77;;;7.00;88.60;;;;;;5053549;28;20183;-90
2021/10/23 03:16:58;;;;;;;14.63;3.00;;;7.00;88.60;;;;;;5035306;28;20199;-90
2021/10/23 03:19:24;;;;;;;13.17;3.10;;;7.00;88.60;;;;;;5053493;28;20172;-91
2021/10/23 03:21:49;;;;;;;15.93;2.73;;;6.90;88.50;;;;;;5035627;28;20222;-91
2021/10/23 03:24:15;;;;;;;21.60;4.13;;;7.00;88.60;;;;;;5053100;28;20172;-90
2021/10/23 03:26:41;;;;;;;14.03;2.33;;;7.00;88.80;;;;;;5036192;28;20203;-90
2021/10/23 03:29:06;;;;;;;14.20;2.60;;;7.00;88.90;;;;;;5053207;28;20172;-90
2021/10/23 03:31:33;;;;;;;16.20;2.87;;;7.20;88.40;;;;;;5035328;28;20180;-90
2021/10/23 03:33:59;;;;;;;24.03;2.50;;;7.30;88.20;;;;;;5035614;28;20549;-90
2021/10/23 03:36:25;;;;;;;16.63;2.57;;;7.30;88.20;;;;;;5035267;28;20204;-90
2021/10/23 03:38:51;;;;;;;17.03;3.53;;;7.30;88.30;;;;;;5035190;28;20184;-91
2021/10/23 03:41:16;;;;;;;23.63;2.77;;;7.30;88.40;;;;;;5035107;28;20267;-91
2021/10/23 03:43:42;;;;;;;14.97;2.83;;;7.30;88.30;;;;;;5035139;28;20180;-91
2021/10/23 03:46:08;;;;;;;17.60;2.67;;;7.40;87.80;;;;;;5034990;28;20226;-91
2021/10/23 03:48:33;;;;;;;19.53;2.67;;;7.60;87.10;;;;;;5053185;28;20210;-91
2021/10/23 03:50:59;;;;;;;19.70;3.03;;;7.50;87.10;;;;;;5035394;28;20179;-91
2021/10/23 03:53:25;;;;;;;16.47;2.87;;;7.40;87.40;;;;;;5035016;28;20180;-91
2021/10/23 03:55:50;;;;;;;15.57;2.67;;;7.40;87.60;;;;;;5052740;28;20234;-90
2021/10/23 03:58:16;;;;;;;18.60;3.00;;;7.30;87.70;;;;;;5035763;28;20321;-91
2021/10/23 04:00:42;;;;;;;20.03;3.20;;;7.30;87.50;;;;;;5035053;28;20184;-91
2021/10/23 04:03:08;;;;;;;10.77;2.30;;;7.20;87.70;;;;;;5035685;28;20653;-91
2021/10/23 04:05:33;;;;;;;13.37;3.07;;;7.20;87.80;;;;;;5035740;28;20221;-91
2021/10/23 04:07:59;;;;;;;13.60;2.90;;;7.20;87.90;;;;;;5035028;28;20259;-91
2021/10/23 04:10:25;;;;;;;11.13;2.40;;;7.10;87.70;;;;;;5035054;28;20180;-91
2021/10/23 04:12:51;;;;;;;13.27;2.77;;;7.10;87.40;;;;;;5035454;28;20168;-90
2021/10/23 04:15:16;;;;;;;12.20;2.10;;;7.20;87.10;;;;;;5034928;28;20253;-90
2021/10/23 04:17:42;;;;;;;14.27;2.23;;;7.20;87.10;;;;;;5037411;28;20184;-90
2021/10/23 04:20:08;;;;;;;15.23;2.63;;;7.20;87.20;;;;;;5038811;28;20176;-90
2021/10/23 04:22:34;;;;;;;15.30;2.50;;;7.20;87.20;;;;;;5056532;28;20259;-90
2021/10/23 04:25:00;;;;;;;13.90;2.60;;;7.10;87.60;;;;;;5038256;28;20281;-91
2021/10/23 04:27:25;;;;;;;10.83;2.60;;;7.10;87.70;;;;;;5056237;28;20732;-90
2021/10/23 04:29:51;;;;;;;13.97;2.10;;;7.10;88.00;;;;;;5038514;28;20530;-90
2021/10/23 04:32:17;;;;;;;15.23;2.77;;;7.00;88.10;;;;;;5038226;28;20187;-90
2021/10/23 04:34:43;;;;;;;15.27;2.53;;;7.00;88.40;;;;;;5038136;28;20175;-90
2021/10/23 04:37:09;;;;;;;11.20;2.37;;;7.00;88.40;;;;;;5038308;28;20203;-90
2021/10/23 04:39:34;;;;;;;11.60;1.70;;;7.00;88.40;;;;;;5038065;28;20190;-90
2021/10/23 04:42:00;;;;;;;14.00;3.03;;;7.10;88.20;;;;;;5038252;28;20224;-90
2021/10/23 04:44:26;;;;;;;9.97;2.70;;;7.20;88.40;;;;;;5037915;28;20200;-91
2021/10/23 04:46:52;;;;;;;12.97;2.67;;;7.00;88.40;;;;;;5037980;28;20218;-91
2021/10/23 04:49:18;;;;;;;10.80;2.43;;;7.00;88.60;;;;;;5055768;28;20721;-90
2021/10/23 04:51:44;;;;;;;15.80;2.77;;;7.10;88.40;;;;;;5055738;28;20168;-90
2021/10/23 04:54:10;;;;;;;14.20;4.10;;;7.00;88.50;;;;;;5055928;28;20253;-90
2021/10/23 04:56:35;;;;;;;17.27;2.90;;;7.00;88.70;;;;;;5037558;28;20210;-90
2021/10/23 04:59:01;;;;;;;14.97;2.73;;;6.90;88.80;;;;;;5055560;28;20175;-91
2021/10/23 05:01:27;;;;;;;11.70;2.47;;;6.80;89.00;;;;;;5037698;28;20207;-91
2021/10/23 05:03:53;;;;;;;11.83;2.33;;;6.70;89.40;;;;;;5037725;28;20671;-91
2021/10/23 05:06:20;;;;;;;17.03;2.37;;;6.60;89.90;;;;;;5037805;28;20212;-91
2021/10/23 05:08:45;;;;;;;20.37;2.90;;;6.60;90.10;;;;;;5037489;28;20168;-90
2021/10/23 05:11:11;;;;;;;13.53;2.63;;;6.60;90.20;;;;;;5037541;28;20262;-91
2021/10/23 05:13:37;;;;;;;19.83;3.30;;;6.60;90.60;;;;;;5037429;28;20175;-91
2021/10/23 05:16:03;;;;;;;16.10;3.10;;;6.70;90.50;;;;;;5055382;28;20198;-90
2021/10/23 05:18:28;;;;;;;16.23;3.20;;;6.70;90.40;;;;;;5037426;28;20180;-91
2021/10/23 05:20:54;;;;;;;18.13;3.07;;;6.60;90.30;;;;;;5037297;28;20245;-91
2021/10/23 05:23:20;;;;;;;14.37;2.77;;;6.70;90.20;;;;;;5037339;28;20758;-90
2021/10/23 05:25:46;;;;;;;15.77;2.40;;;6.70;90.20;;;;;;5037163;28;20238;-91
2021/10/23 05:28:12;;;;;;;15.30;2.10;;;6.60;90.00;;;;;;5055115;28;20254;-90
2021/10/23 05:30:38;;;;;;;15.97;2.53;;;6.60;90.10;;;;;;5037128;28;20296;-90
2021/10/23 05:33:04;;;;;;;19.17;2.53;;;6.60;90.10;;;;;;5037159;28;20180;-90
2021/10/23 05:35:30;;;;;;;15.67;2.10;;;6.60;90.10;;;;;;5036937;28;20199;-90
2021/10/23 05:37:56;;;;;;;18.37;2.70;;;6.70;90.10;;;;;;5037074;28;20181;-90
2021/10/23 05:40:21;;;;;;;10.43;1.97;;;6.80;89.90;;;;;;5054729;28;20238;-90
2021/10/23 05:42:47;;;;;;;13.60;2.83;;;6.80;89.90;;;;;;5036879;28;20185;-90
2021/10/23 05:45:13;;;;;;;15.47;2.40;;;6.70;89.90;;;;;;5036726;28;20211;-90
2021/10/23 05:47:39;;;;;;;9.97;2.37;;;6.80;89.80;;;;;;5036793;28;20182;-90
2021/10/23 05:50:07;;;;;;;18.90;3.27;;;6.70;90.00;;;;;;5036866;28;20176;-90
2021/10/23 05:52:33;;;;;;;7.77;1.97;;;6.70;90.30;;;;;;5037006;28;20266;-90
2021/10/23 05:54:59;;;;;;;11.30;2.70;;;6.70;90.40;;;;;;5054734;28;20219;-90
2021/10/23 05:57:24;;;;;;;14.57;2.97;;;6.80;90.40;;;;;;5036644;28;20191;-90
2021/10/23 05:59:50;;;;;;;20.03;2.57;;;6.80;90.40;;;;;;5036727;28;20710;-90
2021/10/23 06:02:28;;;;;;;9.70;2.03;;;6.80;90.50;;;;;;5054442;28;20531;-90
2021/10/23 06:04:56;;;;;;;16.27;2.37;;;6.90;90.50;;;;;;5036427;28;20192;-90
2021/10/23 06:07:24;;;;;;;14.40;2.97;;;6.90;90.60;;;;;;5036490;28;20178;-91
2021/10/23 06:09:50;;;;;;;19.37;4.20;;;6.90;90.90;;;;;;5036682;28;20175;-90
2021/10/23 06:12:16;;;;;;;16.63;2.10;;;6.90;91.00;;;;;;5036440;28;20175;-90
2021/10/23 06:14:41;;;;;;;9.67;2.53;;;6.90;91.10;;;;;;5036609;28;20183;-90
2021/10/23 06:17:07;;;;;;;14.57;2.80;;;6.90;91.00;;;;;;5054048;28;20565;-90
2021/10/23 06:19:34;;;;;;;12.57;2.73;;;6.90;90.90;;;;;;5054346;28;20182;-90
2021/10/23 06:22:00;;;;;;;14.13;1.77;;;7.00;90.80;;;;;;5036359;28;20594;-90
2021/10/23 06:24:26;;;;;;;12.43;2.17;;;7.00;90.70;;;;;;5035996;28;20175;-90
2021/10/23 06:26:52;;;;;;;9.97;2.03;;;7.00;90.60;;;;;;5036012;28;20199;-90
2021/10/23 06:29:18;;;;;;;13.97;2.90;;;7.00;90.70;;;;;;5036139;28;20182;-90
2021/10/23 06:31:44;;;;;;;20.87;2.77;;;7.00;90.80;;;;;;5036243;28;20267;-90
2021/10/23 06:34:09;;;;;;;14.23;3.03;;;6.90;90.80;;;;;;5036294;28;20181;-90
2021/10/23 06:36:35;;;;;;;13.30;2.57;;;6.90;90.70;;;;;;5035909;28;20219;-90
2021/10/23 06:39:01;;;;;;;11.40;3.30;;;6.80;90.80;;;;;;5035173;28;20180;-90
2021/10/23 06:41:26;;;;;;;15.83;3.10;;;6.80;91.10;;;;;;5035861;28;20552;-90
2021/10/23 06:43:52;;;;;;;12.10;2.63;;;6.80;91.10;;;;;;5035808;28;20665;-90
2021/10/23 06:46:19;;;;;;;8.37;2.50;;;6.80;91.10;;;;;;5035588;28;20211;-90
2021/10/23 06:48:45;;;;;;;15.57;2.97;;;6.80;91.00;;;;;;5035919;28;20670;-90
2021/10/23 06:51:11;;;;;;;14.57;2.53;;;6.90;91.10;;;;;;5053562;28;20172;-91
2021/10/23 06:53:37;;;;;;;17.97;3.23;;;6.90;91.30;;;;;;5035742;28;20171;-90
2021/10/23 06:56:03;;;;;;;14.93;3.13;;;6.80;91.30;;;;;;5035604;28;20215;-90
2021/10/23 06:58:28;;;;;;;11.03;2.67;;;6.80;91.20;;;;;;5036692;28;20713;-90
2021/10/23 07:00:54;;;;;;;19.97;4.70;;;6.90;91.20;;;;;;5035999;28;20183;-90
2021/10/23 07:03:20;;;;;;;14.73;3.40;;;6.90;91.10;;;;;;5053392;28;20207;-90
2021/10/23 07:05:45;;;;;;;18.73;2.77;;;6.90;91.00;;;;;;5053407;28;20256;-90
2021/10/23 07:08:11;;;;;;;13.53;3.77;;;6.90;91.10;;;;;;5053524;28;20171;-91
2021/10/23 07:10:39;;;;;;;15.63;3.37;;;6.90;91.10;;;;;;5035493;28;20190;-91
2021/10/23 07:13:04;;;;;;;12.40;2.70;;;7.00;91.10;;;;;;5053307;28;20175;-89
2021/10/23 07:15:30;;;;;;;10.23;2.50;;;7.10;91.20;;;;;;5035338;28;20218;-91
2021/10/23 07:17:57;;;;;;;12.10;2.27;;;7.10;91.10;;;;;;5035548;28;20670;-91
2021/10/23 07:20:25;;;;;;;19.07;2.77;;;7.20;90.80;;;;;;5036333;28;20178;-91
2021/10/23 07:22:51;;;;;;;12.53;2.80;;;7.20;90.80;;;;;;5053320;28;20533;-90
2021/10/23 07:25:17;;;;;;;15.93;2.97;;;7.20;90.80;;;;;;5035788;28;20210;-91
2021/10/23 07:27:43;;;;;;;15.00;2.70;;;7.30;90.70;;;;;;5053181;28;20168;-91
2021/10/23 07:30:09;;;;;;;18.10;2.93;;;7.30;90.80;;;;;;5035266;28;20179;-91
2021/10/23 07:32:51;;;;;;;11.27;2.83;;;7.30;90.60;;;;;;5035310;28;20601;-90
2021/10/23 07:35:17;;;;;;;13.70;2.70;;;7.40;90.70;;;;;;5053451;28;20691;-89
2021/10/23 07:37:43;;;;;;;13.13;2.53;;;7.40;90.50;;;;;;5053136;28;20168;-89
2021/10/23 07:40:11;;;;;;;15.33;2.43;;;7.50;90.70;;;;;;5035147;28;20179;-89
2021/10/23 07:42:38;;;;;;;12.30;2.77;;;7.50;90.70;;;;;;5036115;28;20580;-89
2021/10/23 07:45:09;;;;;;;12.33;2.80;;;7.50;90.60;;;;;;5035506;28;20192;-89
2021/10/23 07:47:39;;;;;;;15.27;2.77;;;7.50;90.60;;;;;;5035710;28;20179;-89
2021/10/23 07:50:07;;;;;;;10.13;2.60;;;7.50;90.70;;;;;;5035305;28;20182;-89
2021/10/23 07:52:33;;;;;;;13.43;2.40;;;7.50;90.70;;;;;;5039397;28;20703;-89
2021/10/23 07:54:59;;;;;;;13.10;2.40;;;7.70;90.90;;;;;;5056678;28;20172;-89
2021/10/23 07:57:24;;;;;;;8.77;2.50;;;7.70;90.70;;;;;;5038855;28;20266;-89
2021/10/23 07:59:50;;;;;;;13.60;2.70;;;7.80;90.60;;;;;;5038730;28;20180;-89
2021/10/23 08:02:16;;;;;;;9.30;2.27;;;7.80;90.20;;;;;;5038778;28;20180;-89
2021/10/23 08:04:42;;;;;;;14.53;2.30;;;7.80;90.20;;;;;;5056463;28;20228;-89
2021/10/23 08:07:08;;;;;;;10.03;2.53;;;7.80;90.00;;;;;;5038530;28;20195;-89
2021/10/23 08:09:35;;;;;;;11.50;2.47;;;7.80;89.90;;;;;;5038807;28;20176;-90
2021/10/23 08:12:03;;;;;;;9.43;2.43;;;7.80;90.10;;;;;;5038691;28;20172;-89
2021/10/23 08:14:29;;;;;;;13.43;2.37;;;7.80;89.90;;;;;;5038642;28;20175;-88
2021/10/23 08:16:56;;;;;;;15.52;3.20;;;7.90;90.20;;;;;;5038296;28;20420;-89
2021/10/23 08:19:22;;;;;;;16.77;2.30;;;8.10;90.00;;;;;;5038560;28;20172;-89
2021/10/23 08:21:49;;;;;;;13.87;4.27;;;8.10;90.00;;;;;;5038696;28;20172;-89
2021/10/23 08:24:15;;;;;;;16.73;3.63;;;8.10;90.10;;;;;;5038434;28;20652;-89
2021/10/23 08:26:43;;;;;;;9.50;2.40;;;8.20;90.10;;;;;;5038553;28;20187;-89
2021/10/23 08:29:09;;;;;;;12.73;2.43;;;8.30;90.20;;;;;;5039052;28;20172;-89
2021/10/23 08:31:35;;;;;;;10.33;2.60;;;8.30;90.10;;;;;;5038269;28;20183;-89
2021/10/23 08:34:02;;;;;;;21.13;4.00;;;8.30;89.90;;;;;;5038465;28;20263;-89
2021/10/23 08:36:29;;;;;;;11.70;2.70;;;8.40;89.90;;;;;;5038315;28;20735;-89
2021/10/23 08:38:56;;;;;;;12.87;2.70;;;8.50;90.00;;;;;;5056183;28;20550;-88
2021/10/23 08:41:22;;;;;;;21.63;3.93;;;8.40;89.70;;;;;;5038219;28;20182;-88
2021/10/23 08:43:48;;;;;;;10.87;2.53;;;8.30;90.00;;;;;;5038486;28;20175;-89
2021/10/23 08:46:20;;;;;;;11.70;2.40;;;8.30;90.10;;;;;;5038081;28;20739;-89
2021/10/23 08:48:56;;;;;;;9.60;3.50;;;8.40;90.20;;;;;;5038148;28;20211;-89
2021/10/23 08:51:22;;;;;;;12.73;2.67;;;8.50;90.10;;;;;;5038084;28;20164;-89
2021/10/23 08:53:52;;;;;;;20.50;3.47;;;8.70;89.70;;;;;;5056226;28;20258;-89
2021/10/23 08:56:19;;;;;;;17.93;2.90;;;8.90;89.80;;;;;;5037910;28;20219;-89
2021/10/23 08:58:45;;;;;;;15.27;3.27;;;8.90;89.40;;;;;;5056100;28;20644;-89
2021/10/23 09:01:12;;;;;;;16.27;3.17;;;8.90;89.00;;;;;;5037845;28;20267;-89
2021/10/23 09:03:40;;;;;;;14.00;2.97;;;8.80;89.40;;;;;;5037353;28;20636;-89
2021/10/23 09:06:14;;;;;;;16.07;2.77;;;8.80;89.40;;;;;;5037784;28;20261;-89
2021/10/23 09:09:13;;;;;;;13.83;2.53;;;8.70;89.00;;;;;;5037966;28;20172;-89
2021/10/23 09:11:45;;;;;;;13.47;2.80;;;8.70;88.90;;;;;;5037845;28;20230;-88
2021/10/23 09:14:24;;;;;;;15.87;2.70;;;8.70;89.20;;;;;;5037949;28;20178;-89
2021/10/23 09:17:09;;;;;;;18.13;2.80;;;8.80;88.70;;;;;;5037742;28;20223;-89
2021/10/23 09:19:36;;;;;;;17.70;3.03;;;9.20;89.10;;;;;;5037910;28;20168;-90
2021/10/23 09:22:03;;;;;;;11.07;2.90;;;9.30;88.90;;;;;;5037853;28;20176;-89
2021/10/23 09:24:29;;;;;;;15.00;2.77;;;9.50;88.40;;;;;;5037125;28;20636;-89
2021/10/23 09:26:55;;;;;;;12.07;2.40;;;9.60;88.00;;;;;;5055219;28;20194;-89
2021/10/23 09:29:25;;;;;;;17.10;2.87;;;9.80;87.50;;;;;;5055464;28;20160;-89
2021/10/23 09:31:51;;;;;;;8.03;2.23;;;9.90;87.40;;;;;;5037939;28;20168;-89
2021/10/23 09:34:19;;;;;;;10.97;2.53;;;9.70;86.10;;;;;;5037263;28;20180;-89
2021/10/23 09:36:53;;;;;;;17.10;2.93;;;9.70;87.70;;;;;;5037432;28;20631;-89
2021/10/23 09:39:29;;;;;;;15.70;2.97;;;9.70;87.40;;;;;;5037683;28;20206;-89
2021/10/23 09:42:16;;;;;;;12.70;2.70;;;9.70;87.70;;;;;;5037042;28;20176;-90
2021/10/23 09:45:02;;;;;;;12.90;2.70;;;9.80;88.00;;;;;;5036814;28;20223;-89
2021/10/23 09:47:43;;;;;;;13.50;3.10;;;9.90;87.20;;;;;;5055042;28;20174;-89
2021/10/23 09:50:16;;;;;;;12.73;2.83;;;10.00;86.70;;;;;;5037228;28;20674;-90
2021/10/23 09:53:03;;;;;;;11.67;3.50;;;10.00;86.70;;;;;;5036990;28;20180;-90
2021/10/23 09:55:53;;;;;;;15.63;2.73;;;10.20;87.50;;;;;;5037059;28;20217;-90
2021/10/23 09:58:24;;;;;;;13.00;2.73;;;10.30;86.60;;;;;;5054894;28;20160;-89
2021/10/23 10:00:54;;;;;;;16.87;2.47;;;10.00;85.50;;;;;;5055068;28;20171;-90
2021/10/23 10:03:20;;;;;;;11.33;2.27;;;9.90;85.80;;;;;;5037149;28;20201;-90
2021/10/23 10:05:56;;;;;;;12.03;2.50;;;9.90;86.60;;;;;;5036574;28;20775;-90
2021/10/23 10:08:23;;;;;;;10.57;2.57;;;9.90;86.90;;;;;;5036743;28;20191;-90
2021/10/23 10:10:50;;;;;;;13.30;2.73;;;10.00;86.40;;;;;;5054361;28;20172;-90
2021/10/23 10:13:23;;;;;;;15.47;2.60;;;10.30;87.60;;;;;;5036324;28;20255;-91
2021/10/23 10:15:51;;;;;;;13.93;2.53;;;10.40;86.90;;;;;;5035928;28;20203;-89
2021/10/23 10:18:19;;;;;;;12.07;3.00;;;10.40;86.30;;;;;;5054531;28;20184;-90
2021/10/23 10:20:50;;;;;;;8.47;2.37;;;10.40;86.30;;;;;;5036445;28;20195;-90
2021/10/23 10:23:31;;;;;;;12.17;3.47;;;10.50;86.80;;;;;;5036607;28;20263;-89
2021/10/23 10:26:23;;;;;;;10.87;2.03;;;10.50;87.10;;;;;;5037019;28;20215;-89
2021/10/23 10:29:33;;;;;;;13.40;2.97;;;10.50;87.20;;;;;;5036493;28;20176;-89
2021/10/23 10:32:28;;;;;;;9.80;2.63;;;10.40;86.30;;;;;;5036120;28;20175;-90
2021/10/23 10:35:19;;;;;;;10.23;2.07;;;10.30;86.60;;;;;;5036600;28;20684;-89
2021/10/23 10:38:11;;;;;;;11.40;2.47;;;10.30;87.10;;;;;;5036707;28;20190;-89
2021/10/23 10:40:56;;;;;;;14.27;2.40;;;10.30;87.10;;;;;;5054963;28;20210;-89
2021/10/23 10:43:24;;;;;;;12.27;3.57;;;10.20;86.00;;;;;;5036594;28;20657;-90
2021/10/23 10:45:53;;;;;;;12.57;2.20;;;10.20;85.90;;;;;;5036622;28;20215;-89
2021/10/23 10:48:37;;;;;;;9.57;2.37;;;10.30;86.20;;;;;;5054546;28;20168;-88
2021/10/23 10:51:07;;;;;;;12.57;2.50;;;10.30;86.30;;;;;;5036751;28;20263;-89
2021/10/23 10:53:39;;;;;;;7.60;1.87;;;10.30;85.60;;;;;;5054905;28;20172;-90
2021/10/23 10:56:18;;;;;;;9.43;1.97;;;10.40;85.50;;;;;;5037087;28;20225;-90
2021/10/23 10:58:52;;;;;;;8.27;1.90;;;10.60;85.50;;;;;;5037105;28;20253;-90
2021/10/23 11:01:23;;;;;;;10.57;2.10;;;10.70;84.40;;;;;;5037092;28;20190;-89
2021/10/23 11:03:51;;;;;;;6.17;1.60;;;10.70;84.40;;;;;;5036931;28;20657;-90
2021/10/23 11:06:35;;;;;;;13.57;1.87;;;10.60;84.50;;;;;;5054451;28;20208;-89
2021/10/23 11:09:32;;;;;;;9.30;2.07;;;10.70;84.00;;;;;;5036619;28;20172;-89
2021/10/23 11:11:59;;;;;;;8.77;1.97;;;10.90;84.50;;;;;;5054703;28;20507;-89
2021/10/23 11:14:27;;;;;;;6.70;1.80;;;11.10;84.50;;;;;;5036599;28;20184;-89
2021/10/23 11:16:53;;;;;;;12.00;2.30;;;11.10;83.50;;;;;;5035979;28;20230;-89
2021/10/23 11:19:41;;;;;;;19.10;2.07;;;11.20;82.60;;;;;;5053909;28;20526;-88
2021/10/23 11:22:09;;;;;;;13.10;2.20;;;11.30;83.10;;;;;;5036093;28;20176;-88
2021/10/23 11:24:45;;;;;;;7.27;1.73;;;11.30;83.10;;;;;;5053682;28;20172;-90
2021/10/23 11:27:28;;;;;;;9.37;2.40;;;11.30;83.10;;;;;;5039917;28;20191;-90
2021/10/23 11:30:03;;;;;;;6.47;2.00;;;11.30;82.90;;;;;;5057785;28;20172;-90
2021/10/23 11:32:28;;;;;;;10.23;2.33;;;11.30;82.70;;;;;;5040444;28;20186;-90
2021/10/23 11:34:54;;;;;;;13.07;2.70;;;11.20;82.00;;;;;;5058346;28;20180;-90
2021/10/23 11:37:24;;;;;;;11.97;2.17;;;11.30;83.50;;;;;;5058031;28;20180;-90
2021/10/23 11:39:58;;;;;;;9.37;2.17;;;11.20;83.00;;;;;;5039926;28;20652;-90
2021/10/23 11:42:30;;;;;;;10.73;2.00;;;11.20;83.30;;;;;;5039891;28;20180;-90
2021/10/23 11:44:56;;;;;;;9.83;2.40;;;11.20;83.40;;;;;;5057840;28;20188;-89
2021/10/23 11:47:30;;;;;;;10.10;3.00;;;11.10;83.50;;;;;;5039826;28;20179;-89
2021/10/23 11:49:57;;;;;;;10.57;1.90;;;11.00;83.60;;;;;;5039740;28;20180;-89
2021/10/23 11:52:33;;;;;;;8.33;1.90;;;11.00;83.20;;;;;;5039909;28;20203;-89
2021/10/23 11:55:01;;;;;;;9.30;2.17;;;10.90;82.70;;;;;;5039476;28;20188;-89
2021/10/23 11:57:34;;;;;;;2.93;1.60;;;10.90;84.30;;;;;;5057703;28;20200;-89
2021/10/23 12:00:00;;;;;;;7.80;2.03;;;10.80;83.30;;;;;;5039548;28;20207;-88
2021/10/23 12:02:45;;;;;;;9.20;2.10;;;10.70;83.30;;;;;;5039220;28;20188;-88
2021/10/23 12:05:26;;;;;;;11.50;2.13;;;10.70;84.50;;;;;;5039645;28;20206;-89
2021/10/23 12:08:30;;;;;;;9.93;1.90;;;10.60;84.10;;;;;;5039481;28;20616;-89
2021/10/23 12:11:09;;;;;;;13.77;3.00;;;10.60;84.30;;;;;;5038539;28;20411;-90
2021/10/23 12:13:56;;;;;;;7.40;2.17;;;10.70;84.70;;;;;;5039238;28;20194;-90
2021/10/23 12:16:44;;;;;;;8.97;2.00;;;10.70;84.40;;;;;;5039307;28;20196;-89
2021/10/23 12:19:17;;;;;;;11.53;2.20;;;10.70;83.60;;;;;;5039138;28;20675;-89
2021/10/23 12:21:55;;;;;;;9.73;2.30;;;10.80;83.80;;;;;;5039601;28;20176;-89
2021/10/23 12:24:31;;;;;;;14.83;3.80;;;11.00;84.00;;;;;;5056702;28;20156;-90
2021/10/23 12:27:02;;;;;;;8.20;1.87;;;11.20;83.20;;;;;;5056731;28;20242;-89
2021/10/23 12:29:48;;;;;;;14.13;2.73;;;11.40;82.40;;;;;;5056810;28;20168;-90
2021/10/23 12:32:33;;;;;;;7.23;1.83;;;11.60;81.10;;;;;;5039656;28;20176;-89
2021/10/23 12:35:04;;;;;;;10.67;2.23;;;11.70;78.60;;;;;;5039218;28;20176;-89
2021/10/23 12:37:44;;;;;;;10.30;2.37;;;11.60;78.70;;;;;;5038845;28;20172;-89
2021/10/23 12:40:13;;;;;;;13.87;2.57;;;11.70;82.80;;;;;;5056807;28;20167;-89
2021/10/23 12:42:42;;;;;;;12.23;2.03;;;11.60;83.60;;;;;;5038777;28;20179;-90
2021/10/23 12:45:11;;;;;;;6.93;2.67;;;11.40;83.70;;;;;;5039657;28;20592;-90
2021/10/23 12:47:37;;;;;;;10.27;2.50;;;11.50;85.10;;;;;;5038708;28;20172;-89
2021/10/23 12:50:07;;;;;;;11.80;2.57;;;11.60;84.20;;;;;;5056358;28;20171;-89
2021/10/23 12:52:34;;;;;;;9.00;1.97;;;11.40;83.90;;;;;;5039464;28;20179;-89
2021/10/23 12:55:01;;;;;;;12.20;2.27;;;11.50;84.20;;;;;;5038340;28;20179;-89